RUNWAY INFORMATION
Runway Length Width Elevation Displaced
Threshold
Heading | Runway Length Width Elevation Displaced
Threshold
Heading
04 10003 ft 151 ft 324 ft 0 ft 44 | 22 10003 ft 151 ft 348 ft 0 ft 224

 AIRPORT FREQUENCIES
Type APP Name Essex Rada Frequency 120.625 MHZ
Type ATIS Name ATIS Frequency 127.175 MHZ
Type CLD Name CLNC DEL Frequency 121.95 MHZ
Type DIR Name DIRECTOR Frequency 136.2 MHZ
Type GND Name GND Frequency 121.725 MHZ
Type RDR Name Director Frequency 136.2 MHZ
Type TWR Name TWR Frequency 123.8 MHZ

 AIRPORT NEAR NAVIGATION AIDS
Type VOR-DME Name Barkway Frequency 116250 KHZ
Type NDB Name Stansted Frequency 429 KHZ

 METAR AND TAF INFORMATION
METAR FOR EGSS
ADDS - METARS form results

(1456 UTC 01 August 2021)
Data provider http://aviationweather.gov/metar/data/
 
METAR text: EGSS 011450Z AUTO 34007KT 310V020 9999 -RA BKN011/// BKN016/// //////CB 17/14 Q1012
Conditions at: EGSS (STANSTED AIRPORT, GB) observed 1450 UTC 01 August 2021
Temperature: 17.0°C (63°F)
Dewpoint: 14.0°C (57°F) [RH = 82%]
Pressure (altimeter): 29.88 inches Hg (1012.0 mb)
Winds: from the NNW (340 degrees) at 8 MPH (7 knots; 3.6 m/s)
Visibility: 6 or more miles (10+ km)
Ceiling: 1100 feet AGL
Clouds: broken clouds at 1100 feet AGL
broken clouds at 1600 feet AGL
Weather: -RA  (light rain)

METAR text: EGSS 011420Z AUTO 34006KT 310V010 9999 -RA BKN008/// BKN020/// //////CB 17/15 Q1012
Conditions at: EGSS (STANSTED AIRPORT, GB) observed 1420 UTC 01 August 2021
Temperature: 17.0°C (63°F)
Dewpoint: 15.0°C (59°F) [RH = 88%]
Pressure (altimeter): 29.88 inches Hg (1012.0 mb)
Winds: from the NNW (340 degrees) at 7 MPH (6 knots; 3.1 m/s)
Visibility: 6 or more miles (10+ km)
Ceiling: 800 feet AGL
Clouds: broken clouds at 800 feet AGL
broken clouds at 2000 feet AGL
Weather: -RA  (light rain)

Forecast for: EGSS (STANSTED AIRPORT, GB)
Text: TAF EGSS 011059Z 0112/0218 35006KT 9999 SCT017 BKN030
Forecast period: 1200 UTC 01 August 2021 to 1800 UTC 02 August 2021
Forecast type: FROM: standard forecast or significant change
Winds: from the N (350 degrees) at 7 MPH (6 knots; 3.1 m/s)
Visibility: 6 or more miles (10+ km)
Ceiling: 3000 feet AGL
Clouds: scattered clouds at 1700 feet AGL
broken clouds at 3000 feet AGL
Weather: no significant weather forecast for this period
Text: TEMPO 0112/0123 4000 -RADZ SHRA BKN009
Forecast period: 1200 to 2300 UTC 01 August 2021
Forecast type: TEMPORARY: The following changes expected for less than half the time period
Visibility: 2.49 miles (4.01 km)
Ceiling: 900 feet AGL
Clouds: broken clouds at 900 feet AGL
Weather: -RA -DZ SHRA  (light rain, light drizzle, rain showers)



© 2013 - 2021, FlightSimLog.org - Powered by Virtual Airlines Manager